createdAt,value
2023-03-29T00:00:14.507Z,2.70
2023-03-29T00:02:42.636Z,2.30
2023-03-29T00:05:10.126Z,2.50
2023-03-29T00:07:36.766Z,2.35
2023-03-29T00:10:04.779Z,2.28
2023-03-29T00:12:34.034Z,2.30
2023-03-29T00:15:03.391Z,2.55
2023-03-29T00:17:30.306Z,2.58
2023-03-29T00:19:56.990Z,2.30
2023-03-29T00:22:24.042Z,2.10
2023-03-29T00:24:54.200Z,2.30
2023-03-29T00:27:22.100Z,2.00
2023-03-29T00:29:48.717Z,2.22
2023-03-29T00:32:15.604Z,1.92
2023-03-29T00:34:42.755Z,2.10
2023-03-29T00:37:09.711Z,1.90
2023-03-29T00:39:42.202Z,1.90
2023-03-29T00:42:13.254Z,1.85
2023-03-29T00:45:07.127Z,1.70
2023-03-29T00:47:49.691Z,1.65
2023-03-29T00:50:22.442Z,2.40
2023-03-29T00:52:59.503Z,2.10
2023-03-29T00:55:32.530Z,1.70
2023-03-29T00:58:01.003Z,2.15
2023-03-29T01:00:33.459Z,1.80
2023-03-29T01:03:03.258Z,1.80
2023-03-29T01:05:37.814Z,2.30
2023-03-29T01:08:08.996Z,2.03
2023-03-29T01:10:49.431Z,1.92
2023-03-29T01:13:27.275Z,1.70
2023-03-29T01:15:57.711Z,1.87
2023-03-29T01:18:24.865Z,2.00
2023-03-29T01:21:29.357Z,1.65
2023-03-29T01:24:08.375Z,1.88
2023-03-29T01:26:53.108Z,2.08
2023-03-29T01:29:36.828Z,2.30
2023-03-29T01:32:11.609Z,1.92
2023-03-29T01:34:46.318Z,2.15
2023-03-29T01:37:18.012Z,1.95
2023-03-29T01:39:45.703Z,2.33
2023-03-29T01:42:15.065Z,1.90
2023-03-29T01:44:44.528Z,1.92
2023-03-29T01:47:16.361Z,2.10
2023-03-29T01:49:55.592Z,2.08
2023-03-29T01:52:29.628Z,1.80
2023-03-29T01:55:18.519Z,1.83
2023-03-29T01:57:47.410Z,1.83
2023-03-29T02:00:21.342Z,1.77
2023-03-29T02:02:53.210Z,1.80
2023-03-29T02:05:23.072Z,1.83
2023-03-29T02:07:50.608Z,1.57
2023-03-29T02:10:21.470Z,2.03
2023-03-29T02:12:48.132Z,1.60
2023-03-29T02:15:18.841Z,1.70
2023-03-29T02:17:46.420Z,1.92
2023-03-29T02:20:33.871Z,1.70
2023-03-29T02:23:21.389Z,1.90
2023-03-29T02:25:50.528Z,1.88
2023-03-29T02:28:19.895Z,1.80
2023-03-29T02:31:04.712Z,1.23
2023-03-29T02:33:42.156Z,1.53
2023-03-29T02:36:58.911Z,1.55
2023-03-29T02:39:27.871Z,2.50
2023-03-29T02:41:55.577Z,1.98
2023-03-29T02:44:27.077Z,2.17
2023-03-29T02:46:58.186Z,2.00
2023-03-29T02:49:27.981Z,1.63
2023-03-29T02:51:57.932Z,2.30
2023-03-29T02:54:31.638Z,1.80
2023-03-29T02:57:06.592Z,1.98
2023-03-29T02:59:33.661Z,2.03
2023-03-29T03:02:03.559Z,2.13
2023-03-29T03:04:35.111Z,2.00
2023-03-29T03:07:02.436Z,2.05
2023-03-29T03:09:29.035Z,2.05
2023-03-29T03:11:55.608Z,2.20
2023-03-29T03:14:24.963Z,1.90
2023-03-29T03:16:57.855Z,2.00
2023-03-29T03:19:29.720Z,2.10
2023-03-29T03:21:56.950Z,2.40
2023-03-29T03:24:23.517Z,2.27
2023-03-29T03:26:52.534Z,2.15
2023-03-29T03:29:23.931Z,2.20
2023-03-29T03:31:53.830Z,2.17
2023-03-29T03:34:21.140Z,2.10
2023-03-29T03:36:47.708Z,1.97
2023-03-29T03:39:14.417Z,1.80
2023-03-29T03:41:41.146Z,2.03
2023-03-29T03:44:10.124Z,2.38
2023-03-29T03:46:38.798Z,2.15
2023-03-29T03:49:07.874Z,2.03
2023-03-29T03:51:36.897Z,1.95
2023-03-29T03:54:06.049Z,2.20
2023-03-29T03:56:35.656Z,1.90
2023-03-29T03:59:04.774Z,2.10
2023-03-29T04:01:31.442Z,2.73
2023-03-29T04:03:58.399Z,2.10
2023-03-29T04:06:25.517Z,2.30
2023-03-29T04:08:52.216Z,2.40
2023-03-29T04:11:21.245Z,2.40
2023-03-29T04:13:47.778Z,2.10
2023-03-29T04:16:16.573Z,2.38
2023-03-29T04:18:44.110Z,2.38
2023-03-29T04:21:10.916Z,2.17
2023-03-29T04:23:37.507Z,2.58
2023-03-29T04:26:06.574Z,2.40
2023-03-29T04:28:35.635Z,2.30
2023-03-29T04:31:02.410Z,2.50
2023-03-29T04:33:31.427Z,2.58
2023-03-29T04:35:58.331Z,2.70
2023-03-29T04:38:24.908Z,2.60
2023-03-29T04:40:55.089Z,2.65
2023-03-29T04:43:23.666Z,2.70
2023-03-29T04:45:50.288Z,2.60
2023-03-29T04:48:19.225Z,2.88
2023-03-29T04:50:48.552Z,2.77
2023-03-29T04:53:19.897Z,2.83
2023-03-29T04:55:47.384Z,2.50
2023-03-29T04:58:16.624Z,2.45
2023-03-29T05:00:45.963Z,2.35
2023-03-29T05:03:14.618Z,2.47
2023-03-29T05:05:41.799Z,2.30
2023-03-29T05:08:09.579Z,2.20
2023-03-29T05:10:36.748Z,2.20
2023-03-29T05:13:04.105Z,1.73
2023-03-29T05:15:31.413Z,2.00
2023-03-29T05:17:59.029Z,1.75
2023-03-29T05:20:25.671Z,1.85
2023-03-29T05:22:53.327Z,2.20
2023-03-29T05:25:20.868Z,2.40
2023-03-29T05:27:47.502Z,2.00
2023-03-29T05:30:15.406Z,2.05
2023-03-29T05:32:42.939Z,2.15
2023-03-29T05:35:09.912Z,2.28
2023-03-29T05:37:37.012Z,1.80
2023-03-29T05:40:08.118Z,1.73
2023-03-29T05:42:34.691Z,2.13
2023-03-29T05:45:01.418Z,2.00
2023-03-29T05:47:28.517Z,2.25
2023-03-29T05:49:55.109Z,2.05
2023-03-29T05:52:21.642Z,2.47
2023-03-29T05:54:53.027Z,2.40
2023-03-29T05:57:21.009Z,2.30
2023-03-29T05:59:50.173Z,2.40
2023-03-29T06:02:16.935Z,2.10
2023-03-29T06:04:43.636Z,2.27
2023-03-29T06:07:12.575Z,2.00
2023-03-29T06:09:41.808Z,2.42
2023-03-29T06:12:08.488Z,2.60
2023-03-29T06:14:35.821Z,2.10
2023-03-29T06:17:02.804Z,2.50
2023-03-29T06:19:29.535Z,2.00
2023-03-29T06:22:00.759Z,2.30
2023-03-29T06:24:29.596Z,1.98
2023-03-29T06:26:56.477Z,2.20
2023-03-29T06:29:23.054Z,2.33
2023-03-29T06:31:50.190Z,2.25
2023-03-29T06:34:17.465Z,2.80
2023-03-29T06:36:45.927Z,2.22
2023-03-29T06:39:12.538Z,2.15
2023-03-29T06:41:41.339Z,1.90
2023-03-29T06:44:08.923Z,1.80
2023-03-29T06:46:37.725Z,1.98
2023-03-29T06:49:04.372Z,2.00
2023-03-29T06:51:31.382Z,1.73
2023-03-29T06:53:58.037Z,2.07
2023-03-29T06:56:30.746Z,3.67
2023-03-29T06:58:57.324Z,3.00
2023-03-29T07:01:24.023Z,2.20
2023-03-29T07:03:50.693Z,1.88
2023-03-29T07:06:20.401Z,1.53
2023-03-29T07:08:51.847Z,1.70
2023-03-29T07:11:20.401Z,1.58
2023-03-29T07:13:49.152Z,1.27
2023-03-29T07:16:16.363Z,1.20
2023-03-29T07:18:45.949Z,1.17
2023-03-29T07:21:15.086Z,0.90
2023-03-29T07:23:44.023Z,1.00
2023-03-29T07:26:11.229Z,0.90
2023-03-29T07:28:41.034Z,1.00
2023-03-29T07:31:11.769Z,0.87
2023-03-29T07:33:39.270Z,0.90
2023-03-29T07:36:09.067Z,1.02
2023-03-29T07:38:36.940Z,0.88
2023-03-29T07:41:08.269Z,0.90
2023-03-29T07:43:35.045Z,1.23
2023-03-29T07:46:02.822Z,0.88
2023-03-29T07:48:30.169Z,1.13
2023-03-29T07:50:59.249Z,0.82
2023-03-29T07:53:27.023Z,1.08
2023-03-29T07:55:57.075Z,0.80
2023-03-29T07:58:23.725Z,0.90
2023-03-29T08:00:50.839Z,0.98
2023-03-29T08:03:17.809Z,2.13
2023-03-29T08:05:47.508Z,2.60
2023-03-29T08:08:14.345Z,1.63
2023-03-29T08:10:44.642Z,1.33
2023-03-29T08:13:11.874Z,2.45
2023-03-29T08:15:45.514Z,3.15
2023-03-29T08:18:12.236Z,3.20
2023-03-29T08:20:38.853Z,4.00
2023-03-29T08:23:06.421Z,4.38
2023-03-29T08:25:35.791Z,5.03
2023-03-29T08:28:02.422Z,3.08
2023-03-29T08:30:31.386Z,3.35
2023-03-29T08:32:58.191Z,3.23
2023-03-29T08:35:29.582Z,2.75
2023-03-29T08:37:56.353Z,2.47
2023-03-29T08:40:26.721Z,2.00
2023-03-29T08:43:03.597Z,2.28
2023-03-29T08:46:03.206Z,2.63
2023-03-29T08:48:37.744Z,2.78
2023-03-29T08:51:17.460Z,2.65
2023-03-29T08:53:52.498Z,3.53
2023-03-29T08:56:25.299Z,3.33
2023-03-29T08:58:53.916Z,3.20
2023-03-29T09:01:24.326Z,3.28
2023-03-29T09:04:13.147Z,2.72
2023-03-29T09:06:40.712Z,1.95
2023-03-29T09:09:15.291Z,1.83
2023-03-29T09:12:26.613Z,1.60
2023-03-29T09:14:55.899Z,1.70
2023-03-29T09:17:34.972Z,2.42
2023-03-29T09:20:10.529Z,2.75
2023-03-29T09:22:47.200Z,2.33
2023-03-29T09:25:36.345Z,2.17
2023-03-29T09:28:17.477Z,2.60
2023-03-29T09:31:26.219Z,2.72
2023-03-29T09:34:04.493Z,4.43
2023-03-29T09:36:53.864Z,4.60
2023-03-29T09:39:22.278Z,3.53
2023-03-29T09:41:56.017Z,2.80
2023-03-29T09:44:31.211Z,2.05
2023-03-29T09:47:07.716Z,2.30
2023-03-29T09:49:43.534Z,1.58
2023-03-29T09:52:16.861Z,1.50
2023-03-29T09:54:44.090Z,1.65
2023-03-29T09:57:13.585Z,1.67
2023-03-29T09:59:42.744Z,1.55
2023-03-29T10:02:12.942Z,1.88
2023-03-29T10:04:42.574Z,1.50
2023-03-29T10:07:16.278Z,1.45
2023-03-29T10:09:46.729Z,1.38
2023-03-29T10:12:16.869Z,1.38
2023-03-29T10:14:46.039Z,1.05
2023-03-29T10:17:22.794Z,1.43
2023-03-29T10:19:57.857Z,1.52
2023-03-29T10:22:27.804Z,1.55
2023-03-29T10:24:58.016Z,1.20
2023-03-29T10:27:31.356Z,1.45
2023-03-29T10:30:00.112Z,1.30
2023-03-29T10:32:36.813Z,1.55
2023-03-29T10:35:15.757Z,1.45
2023-03-29T10:37:45.315Z,1.40
2023-03-29T10:40:25.854Z,1.48
2023-03-29T10:42:57.600Z,1.30
2023-03-29T10:45:33.852Z,1.35
2023-03-29T10:48:04.120Z,1.40
2023-03-29T10:50:38.131Z,1.40
2023-03-29T10:53:23.580Z,1.75
2023-03-29T10:56:09.792Z,1.20
2023-03-29T10:58:48.435Z,1.60
2023-03-29T11:01:27.226Z,1.52
2023-03-29T11:04:27.214Z,1.50
2023-03-29T11:07:15.930Z,1.38
2023-03-29T11:09:57.624Z,1.43
2023-03-29T11:12:39.248Z,1.40
2023-03-29T11:15:20.358Z,1.83
2023-03-29T11:18:34.780Z,1.83
2023-03-29T11:21:26.121Z,1.20
2023-03-29T11:24:17.736Z,1.43
2023-03-29T11:27:23.247Z,1.40
2023-03-29T11:30:22.310Z,1.67
2023-03-29T11:33:01.580Z,1.70
2023-03-29T11:36:02.467Z,1.83
2023-03-29T11:38:39.759Z,1.47
2023-03-29T11:41:17.835Z,1.65
2023-03-29T11:44:09.475Z,1.30
2023-03-29T11:46:42.760Z,1.60
2023-03-29T11:49:24.578Z,1.40
2023-03-29T11:51:57.593Z,1.50
2023-03-29T11:54:31.224Z,1.60
2023-03-29T11:57:05.797Z,1.70
2023-03-29T11:59:39.602Z,1.35
2023-03-29T12:02:35.889Z,1.60
2023-03-29T12:05:13.749Z,1.90
2023-03-29T12:07:48.472Z,1.60
2023-03-29T12:10:18.053Z,1.60
2023-03-29T12:13:21.068Z,1.65
2023-03-29T12:15:59.298Z,1.70
2023-03-29T12:18:41.119Z,1.47
2023-03-29T12:21:14.537Z,1.60
2023-03-29T12:23:45.288Z,1.58
2023-03-29T12:26:49.642Z,1.50
2023-03-29T12:29:16.363Z,1.48
2023-03-29T12:31:59.708Z,2.20
2023-03-29T12:34:51.224Z,1.40
2023-03-29T12:37:41.499Z,1.55
2023-03-29T12:40:14.715Z,1.75
2023-03-29T12:42:46.667Z,1.40
2023-03-29T12:45:37.057Z,1.30
2023-03-29T12:48:03.919Z,1.40
2023-03-29T12:50:36.085Z,1.73
2023-03-29T12:53:36.950Z,1.42
2023-03-29T12:56:04.180Z,1.23
2023-03-29T12:58:40.262Z,1.53
2023-03-29T13:01:35.252Z,1.45
2023-03-29T13:04:04.133Z,1.45
2023-03-29T13:06:53.637Z,1.42
2023-03-29T13:09:28.502Z,1.40
2023-03-29T13:11:58.583Z,1.30
2023-03-29T13:14:30.118Z,1.52
2023-03-29T13:17:18.277Z,1.75
2023-03-29T13:19:55.041Z,1.20
2023-03-29T13:22:54.088Z,1.80
2023-03-29T13:25:43.770Z,1.50
2023-03-29T13:28:25.687Z,1.50
2023-03-29T13:30:58.434Z,1.40
2023-03-29T13:33:31.577Z,1.35
2023-03-29T13:36:08.792Z,1.50
2023-03-29T13:38:48.719Z,1.67
2023-03-29T13:41:31.694Z,1.60
2023-03-29T13:43:58.769Z,1.42
2023-03-29T13:46:41.017Z,1.40
2023-03-29T13:49:27.679Z,1.40
2023-03-29T13:51:54.361Z,1.50
2023-03-29T13:54:30.845Z,1.52
2023-03-29T13:57:19.329Z,1.50
2023-03-29T14:00:07.185Z,1.38
2023-03-29T14:02:41.877Z,1.60
2023-03-29T14:05:12.987Z,1.73
2023-03-29T14:07:44.461Z,1.52
2023-03-29T14:10:16.215Z,1.38
2023-03-29T14:12:42.994Z,1.55
2023-03-29T14:15:23.898Z,1.40
2023-03-29T14:17:54.949Z,1.40
2023-03-29T14:20:21.730Z,1.33
2023-03-29T14:22:49.441Z,1.20
2023-03-29T14:25:22.668Z,1.40
2023-03-29T14:27:49.301Z,1.35
2023-03-29T14:30:29.088Z,1.63
2023-03-29T14:32:56.880Z,1.40
2023-03-29T14:35:32.344Z,1.52
2023-03-29T14:37:59.865Z,1.60
2023-03-29T14:40:27.720Z,1.60
2023-03-29T14:42:55.153Z,2.17
2023-03-29T14:45:25.534Z,3.80
2023-03-29T14:47:52.934Z,8.18
2023-03-29T14:50:27.480Z,16.95
2023-03-29T14:52:56.295Z,19.85
2023-03-29T14:55:23.940Z,25.33
2023-03-29T14:57:54.031Z,30.02
2023-03-29T15:00:50.315Z,25.45
2023-03-29T15:03:22.863Z,23.90
2023-03-29T15:05:56.267Z,19.40
2023-03-29T15:08:54.114Z,13.70
2023-03-29T15:11:32.160Z,7.25
2023-03-29T15:14:06.366Z,5.40
2023-03-29T15:16:33.797Z,4.30
2023-03-29T15:19:04.475Z,4.95
2023-03-29T15:21:35.716Z,4.50
2023-03-29T15:24:04.117Z,4.53
2023-03-29T15:26:38.326Z,3.88
2023-03-29T15:29:12.610Z,3.20
2023-03-29T15:31:41.916Z,3.22
2023-03-29T15:34:11.689Z,3.87
2023-03-29T15:36:45.452Z,6.32
2023-03-29T15:39:14.051Z,9.98
2023-03-29T15:41:41.575Z,10.32
2023-03-29T15:44:08.617Z,6.85
2023-03-29T15:46:35.259Z,4.73
2023-03-29T15:49:01.939Z,3.47
2023-03-29T15:51:28.518Z,2.58
2023-03-29T15:53:59.639Z,2.22
2023-03-29T15:56:27.078Z,3.17
2023-03-29T15:58:53.661Z,4.03
2023-03-29T16:01:37.674Z,3.42
2023-03-29T16:04:14.027Z,2.78
2023-03-29T16:06:41.376Z,3.10
2023-03-29T16:09:09.214Z,3.78
2023-03-29T16:11:36.135Z,2.80
2023-03-29T16:14:02.909Z,3.30
2023-03-29T16:16:29.612Z,3.33
2023-03-29T16:18:56.354Z,3.83
2023-03-29T16:21:23.469Z,2.20
2023-03-29T16:23:52.754Z,2.20
2023-03-29T16:26:19.344Z,2.28
2023-03-29T16:28:46.178Z,1.92
2023-03-29T16:31:16.457Z,2.17
2023-03-29T16:33:47.667Z,3.45
2023-03-29T16:36:14.352Z,3.10
2023-03-29T16:38:40.974Z,18.88
2023-03-29T16:41:07.606Z,29.65
2023-03-29T16:43:34.261Z,18.17
2023-03-29T16:46:00.967Z,13.60
2023-03-29T16:48:27.667Z,186.37
2023-03-29T16:50:54.496Z,271.63
2023-03-29T16:53:23.721Z,291.30
2023-03-29T16:55:50.681Z,272.65
2023-03-29T16:58:17.239Z,165.15
2023-03-29T17:00:47.211Z,99.90
2023-03-29T17:03:15.558Z,60.70
2023-03-29T17:05:52.076Z,41.47
2023-03-29T17:08:21.796Z,32.10
2023-03-29T17:10:55.591Z,40.50
2023-03-29T17:13:24.060Z,78.33
2023-03-29T17:15:52.607Z,72.68
2023-03-29T17:18:26.101Z,62.08
2023-03-29T17:20:58.929Z,58.30
2023-03-29T17:23:25.927Z,53.05
2023-03-29T17:25:57.637Z,47.83
2023-03-29T17:28:24.530Z,45.63
2023-03-29T17:30:51.389Z,44.55
2023-03-29T17:33:26.314Z,41.25
2023-03-29T17:35:53.206Z,40.67
2023-03-29T17:38:22.575Z,36.03
2023-03-29T17:40:53.544Z,29.90
2023-03-29T17:43:20.935Z,22.73
2023-03-29T17:45:52.648Z,17.73
2023-03-29T17:48:19.500Z,13.23
2023-03-29T17:50:46.212Z,11.83
2023-03-29T17:53:15.382Z,10.57
2023-03-29T17:55:41.953Z,9.85
2023-03-29T17:58:11.137Z,16.65
2023-03-29T18:00:38.080Z,15.02
2023-03-29T18:03:07.191Z,11.33
2023-03-29T18:05:37.561Z,8.82
2023-03-29T18:08:04.131Z,7.63
2023-03-29T18:10:36.864Z,6.97
2023-03-29T18:13:05.896Z,6.78
2023-03-29T18:15:35.094Z,5.90
2023-03-29T18:18:01.703Z,6.00
2023-03-29T18:20:28.296Z,5.50
2023-03-29T18:22:54.884Z,5.50
2023-03-29T18:25:24.554Z,5.05
2023-03-29T18:27:51.377Z,4.47
2023-03-29T18:30:22.550Z,4.43
2023-03-29T18:32:49.192Z,4.60
2023-03-29T18:35:15.949Z,5.53
2023-03-29T18:37:42.573Z,6.13
2023-03-29T18:40:10.226Z,5.10
2023-03-29T18:42:37.193Z,4.30
2023-03-29T18:45:04.768Z,4.43
2023-03-29T18:47:31.655Z,4.00
2023-03-29T18:49:58.391Z,3.92
2023-03-29T18:52:27.791Z,3.40
2023-03-29T18:54:56.634Z,3.40
2023-03-29T18:57:23.283Z,3.60
2023-03-29T18:59:49.961Z,4.03
2023-03-29T19:02:16.906Z,3.15
2023-03-29T19:04:43.606Z,2.90
2023-03-29T19:07:15.148Z,4.03
2023-03-29T19:09:41.864Z,4.85
2023-03-29T19:12:08.608Z,6.25
2023-03-29T19:14:35.307Z,4.85
2023-03-29T19:17:01.878Z,4.40
2023-03-29T19:19:30.803Z,3.95
2023-03-29T19:22:00.412Z,4.15
2023-03-29T19:24:30.530Z,6.18
2023-03-29T19:26:57.484Z,7.38
2023-03-29T19:29:24.303Z,5.93
2023-03-29T19:31:51.957Z,4.72
2023-03-29T19:34:22.947Z,3.65
2023-03-29T19:36:50.049Z,3.83
2023-03-29T19:39:18.243Z,3.47
2023-03-29T19:41:47.385Z,3.60
2023-03-29T19:44:16.709Z,3.00
2023-03-29T19:46:43.389Z,3.35
2023-03-29T19:49:13.585Z,2.58
2023-03-29T19:51:43.561Z,2.63
2023-03-29T19:54:12.779Z,2.90
2023-03-29T19:56:40.220Z,2.60
2023-03-29T19:59:11.035Z,2.55
2023-03-29T20:01:39.374Z,2.70
2023-03-29T20:04:06.460Z,2.80
2023-03-29T20:06:33.343Z,2.90
2023-03-29T20:09:04.962Z,2.20
2023-03-29T20:11:33.682Z,2.50
2023-03-29T20:14:00.406Z,2.53
2023-03-29T20:16:27.200Z,2.40
2023-03-29T20:19:02.032Z,2.40
2023-03-29T20:21:29.341Z,2.67
2023-03-29T20:23:56.286Z,2.65
2023-03-29T20:26:23.631Z,2.17
2023-03-29T20:28:50.246Z,2.15
2023-03-29T20:31:19.120Z,2.07
2023-03-29T20:33:45.759Z,2.38
2023-03-29T20:36:18.476Z,2.70
2023-03-29T20:38:45.605Z,2.05
2023-03-29T20:41:12.180Z,1.98
2023-03-29T20:43:41.378Z,2.17
2023-03-29T20:46:14.766Z,1.92
2023-03-29T20:48:53.421Z,2.10
2023-03-29T20:51:28.079Z,2.10
2023-03-29T20:54:02.413Z,2.10
2023-03-29T20:56:34.909Z,2.00
2023-03-29T20:59:01.926Z,2.25
2023-03-29T21:01:30.972Z,2.30
2023-03-29T21:03:57.746Z,2.40
2023-03-29T21:06:24.664Z,2.03
2023-03-29T21:08:52.585Z,2.20
2023-03-29T21:11:20.196Z,2.30
2023-03-29T21:13:47.454Z,2.45
2023-03-29T21:16:14.314Z,2.00
2023-03-29T21:18:41.696Z,2.65
2023-03-29T21:21:09.978Z,2.40
2023-03-29T21:23:37.246Z,2.33
2023-03-29T21:26:07.320Z,2.30
2023-03-29T21:28:34.111Z,1.95
2023-03-29T21:31:05.889Z,2.30
2023-03-29T21:33:32.917Z,2.50
2023-03-29T21:36:00.669Z,2.13
2023-03-29T21:38:28.856Z,1.90
2023-03-29T21:40:55.486Z,2.35
2023-03-29T21:43:24.285Z,2.00
2023-03-29T21:45:50.918Z,2.10
2023-03-29T21:48:18.012Z,2.97
2023-03-29T21:50:49.046Z,2.83
2023-03-29T21:53:18.457Z,2.30
2023-03-29T21:55:47.785Z,2.17
2023-03-29T21:58:14.482Z,2.00
2023-03-29T22:00:41.775Z,2.65
2023-03-29T22:03:08.354Z,2.25
2023-03-29T22:05:35.589Z,3.15
2023-03-29T22:08:04.108Z,2.03
2023-03-29T22:10:32.992Z,2.27
2023-03-29T22:13:03.607Z,2.85
2023-03-29T22:15:35.502Z,2.53
2023-03-29T22:18:03.298Z,2.50
2023-03-29T22:20:35.597Z,2.53
2023-03-29T22:23:03.280Z,2.10
2023-03-29T22:25:29.927Z,2.15
2023-03-29T22:27:56.490Z,2.30
2023-03-29T22:30:23.358Z,2.28
2023-03-29T22:32:52.305Z,2.30
2023-03-29T22:35:18.914Z,2.30
2023-03-29T22:37:45.594Z,2.40
2023-03-29T22:40:13.261Z,2.60
2023-03-29T22:42:42.432Z,2.58
2023-03-29T22:45:09.650Z,2.70
2023-03-29T22:47:40.923Z,2.17
2023-03-29T22:50:11.184Z,3.15
2023-03-29T22:52:37.805Z,2.25
2023-03-29T22:55:06.982Z,2.50
2023-03-29T22:57:33.546Z,2.72
2023-03-29T23:00:00.687Z,2.30
2023-03-29T23:02:27.258Z,2.55
2023-03-29T23:04:53.808Z,2.58
2023-03-29T23:07:20.789Z,2.30
2023-03-29T23:09:50.606Z,2.75
2023-03-29T23:12:17.153Z,2.53
2023-03-29T23:14:46.329Z,2.80
2023-03-29T23:17:13.492Z,2.92
2023-03-29T23:19:40.056Z,2.65
2023-03-29T23:22:06.674Z,2.65
2023-03-29T23:24:33.426Z,2.30
2023-03-29T23:27:03.024Z,2.85
2023-03-29T23:29:29.681Z,3.03
2023-03-29T23:31:56.933Z,2.85
2023-03-29T23:34:23.649Z,2.65
2023-03-29T23:36:50.224Z,2.93
2023-03-29T23:39:19.300Z,3.05
2023-03-29T23:41:48.902Z,3.78
2023-03-29T23:44:18.221Z,2.50
2023-03-29T23:46:44.803Z,3.20
2023-03-29T23:49:13.948Z,3.13
2023-03-29T23:51:44.997Z,2.88
2023-03-29T23:54:15.318Z,3.65
2023-03-29T23:56:41.924Z,3.33
2023-03-29T23:59:13.436Z,3.20
